Time;durP1;ratioP1;P1;durP2;ratioP2;P2;SDS_P1;SDS_P2;PMS_P1;PMS_P2;Temp;Humidity;BMP_temperature;BMP_pressure;BME280_temperature;BME280_humidity;BME280_pressure;Samples;Min_cycle;Max_cycle;Signal;HPM_P1;HPM_P2
2024/01/06 00:01:38;;;;;;;6.63;3.28;;;23.30;51.50;;;;;;5040620;28;20108;-65
2024/01/06 00:04:04;;;;;;;10.50;5.03;;;23.30;52.00;;;;;;5037833;28;20465;-66
2024/01/06 00:06:30;;;;;;;10.07;4.80;;;23.20;51.70;;;;;;5039162;28;20026;-65
2024/01/06 00:08:55;;;;;;;11.02;5.10;;;23.20;51.50;;;;;;5035589;28;20498;-63
2024/01/06 00:11:22;;;;;;;10.18;5.28;;;23.10;51.50;;;;;;5038298;28;20421;-64
2024/01/06 00:13:48;;;;;;;10.07;5.05;;;23.10;51.50;;;;;;5037880;28;20022;-64
2024/01/06 00:16:18;;;;;;;10.18;5.18;;;23.00;51.50;;;;;;5037290;28;20029;-65
2024/01/06 00:18:43;;;;;;;11.32;5.13;;;23.00;51.70;;;;;;5039884;28;20057;-64
2024/01/06 00:21:09;;;;;;;10.23;5.15;;;22.90;51.70;;;;;;5038409;28;20063;-63
2024/01/06 00:23:34;;;;;;;11.20;5.00;;;22.90;51.70;;;;;;5034392;28;20485;-64
2024/01/06 00:26:00;;;;;;;9.40;4.88;;;22.80;51.80;;;;;;5039685;28;20026;-63
2024/01/06 00:28:26;;;;;;;11.20;5.05;;;22.80;51.80;;;;;;5038103;28;20104;-65
2024/01/06 00:30:51;;;;;;;10.57;4.85;;;22.70;51.90;;;;;;5034001;28;20025;-65
2024/01/06 00:33:17;;;;;;;9.63;4.80;;;22.70;52.00;;;;;;5038218;28;20428;-65
2024/01/06 00:35:42;;;;;;;9.07;4.60;;;22.60;52.00;;;;;;5038047;28;20502;-65
2024/01/06 00:38:08;;;;;;;9.32;4.85;;;22.60;52.10;;;;;;5031581;28;20033;-66
2024/01/06 00:40:34;;;;;;;10.98;5.20;;;22.60;52.20;;;;;;5036613;28;20064;-66
2024/01/06 00:42:59;;;;;;;9.82;5.00;;;22.50;52.20;;;;;;5038391;28;20105;-66
2024/01/06 00:45:25;;;;;;;9.95;4.70;;;22.50;52.20;;;;;;5034242;28;20029;-65
2024/01/06 00:47:50;;;;;;;8.60;4.22;;;22.40;52.20;;;;;;5038169;28;20043;-66
2024/01/06 00:50:19;;;;;;;8.02;4.10;;;22.40;52.30;;;;;;5033992;28;20097;-66
2024/01/06 00:52:44;;;;;;;10.00;4.97;;;22.40;52.40;;;;;;5038973;28;20382;-66
2024/01/06 00:55:10;;;;;;;8.55;4.20;;;22.40;52.90;;;;;;5034670;28;20031;-66
2024/01/06 00:57:36;;;;;;;7.88;4.07;;;22.30;52.40;;;;;;5039365;28;20029;-66
2024/01/06 01:00:03;;;;;;;9.63;4.30;;;22.30;52.50;;;;;;5036028;28;20045;-64
2024/01/06 01:02:29;;;;;;;8.60;4.60;;;22.30;52.50;;;;;;5039161;28;20040;-64
2024/01/06 01:04:54;;;;;;;9.80;4.65;;;22.30;52.60;;;;;;5037664;28;20109;-63
2024/01/06 01:07:20;;;;;;;7.03;3.90;;;22.20;52.70;;;;;;5035029;28;20503;-65
2024/01/06 01:09:45;;;;;;;7.85;3.95;;;22.20;52.60;;;;;;5034771;28;20029;-64
2024/01/06 01:12:16;;;;;;;8.90;4.20;;;22.20;52.70;;;;;;5039889;28;20810;-64
2024/01/06 01:14:42;;;;;;;7.35;4.10;;;22.20;52.70;;;;;;5037118;28;20060;-63
2024/01/06 01:17:07;;;;;;;8.98;4.22;;;22.20;52.80;;;;;;5035514;28;20048;-65
2024/01/06 01:19:33;;;;;;;8.68;3.78;;;22.10;53.30;;;;;;5032999;28;20029;-72
2024/01/06 01:21:58;;;;;;;7.57;3.63;;;22.10;52.90;;;;;;5038342;28;20512;-72
2024/01/06 01:24:24;;;;;;;8.48;4.25;;;22.00;52.80;;;;;;5036763;28;20022;-71
2024/01/06 01:26:50;;;;;;;7.63;4.00;;;22.00;52.90;;;;;;5041437;28;20033;-72
2024/01/06 01:29:17;;;;;;;6.78;3.90;;;22.00;52.90;;;;;;5041314;28;20033;-72
2024/01/06 01:31:42;;;;;;;8.55;4.10;;;22.00;53.00;;;;;;5042724;28;20498;-71
2024/01/06 01:34:08;;;;;;;6.80;3.70;;;22.00;53.00;;;;;;5042352;28;20033;-72
2024/01/06 01:36:33;;;;;;;8.20;4.15;;;21.90;53.00;;;;;;5041077;28;20036;-72
2024/01/06 01:38:59;;;;;;;7.07;3.92;;;21.90;53.00;;;;;;5039521;28;20028;-65
2024/01/06 01:41:25;;;;;;;6.95;3.83;;;21.90;53.10;;;;;;5040563;28;20022;-65
2024/01/06 01:43:57;;;;;;;7.68;3.88;;;21.90;53.60;;;;;;5040922;28;20476;-66
2024/01/06 01:46:25;;;;;;;7.75;4.03;;;21.80;53.10;;;;;;5041792;28;20014;-65
2024/01/06 01:48:51;;;;;;;9.07;4.13;;;21.80;53.20;;;;;;5039536;28;20026;-65
2024/01/06 01:51:19;;;;;;;7.53;3.80;;;21.80;53.20;;;;;;5039368;28;20036;-65
2024/01/06 01:53:45;;;;;;;7.95;4.13;;;21.80;53.20;;;;;;5037147;28;20044;-65
2024/01/06 01:56:11;;;;;;;8.07;3.70;;;21.80;53.20;;;;;;5038393;28;20429;-66
2024/01/06 01:58:37;;;;;;;7.68;3.97;;;21.80;53.30;;;;;;5040279;28;20115;-66
2024/01/06 02:01:03;;;;;;;7.28;4.10;;;21.80;53.30;;;;;;5039539;28;20151;-66
2024/01/06 02:03:30;;;;;;;6.97;3.20;;;21.70;53.30;;;;;;5040449;28;20048;-65
2024/01/06 02:05:56;;;;;;;6.65;3.35;;;21.70;53.30;;;;;;5041178;28;20390;-66
2024/01/06 02:08:23;;;;;;;6.50;3.25;;;21.70;53.40;;;;;;5041445;28;20036;-65
2024/01/06 02:10:48;;;;;;;6.47;3.30;;;21.70;53.40;;;;;;5038411;28;20560;-67
2024/01/06 02:13:14;;;;;;;6.97;3.63;;;21.70;53.40;;;;;;5043174;28;20040;-66
2024/01/06 02:15:40;;;;;;;7.97;3.67;;;21.60;53.40;;;;;;5041148;28;20388;-65
2024/01/06 02:18:06;;;;;;;6.32;3.45;;;21.60;53.40;;;;;;5041302;28;20033;-65
2024/01/06 02:20:31;;;;;;;6.53;3.55;;;21.60;53.50;;;;;;5041646;28;20389;-66
2024/01/06 02:22:59;;;;;;;5.90;3.20;;;21.60;53.50;;;;;;5042657;28;20017;-65
2024/01/06 02:25:25;;;;;;;5.60;3.30;;;21.60;53.60;;;;;;5037751;28;20025;-66
2024/01/06 02:27:50;;;;;;;6.15;3.13;;;21.50;54.00;;;;;;5042125;28;20481;-71
2024/01/06 02:30:16;;;;;;;6.22;3.67;;;21.50;53.50;;;;;;5039814;28;20087;-70
2024/01/06 02:32:41;;;;;;;6.05;3.17;;;21.50;53.60;;;;;;5039419;28;20025;-70
2024/01/06 02:35:07;;;;;;;6.35;3.30;;;21.50;53.60;;;;;;5039689;28;20111;-71
2024/01/06 02:37:33;;;;;;;5.45;3.00;;;21.50;53.70;;;;;;5041313;28;20022;-71
2024/01/06 02:39:59;;;;;;;5.78;3.15;;;21.50;53.70;;;;;;5037550;28;20842;-70
2024/01/06 02:42:25;;;;;;;5.28;3.00;;;21.50;53.70;;;;;;5041585;28;20037;-71
2024/01/06 02:44:51;;;;;;;6.18;3.30;;;21.50;53.80;;;;;;5039340;28;20136;-71
2024/01/06 02:47:16;;;;;;;6.82;3.50;;;21.40;53.70;;;;;;5041062;28;20119;-71
2024/01/06 02:49:42;;;;;;;5.32;3.00;;;21.40;53.80;;;;;;5039556;28;20389;-71
2024/01/06 02:52:08;;;;;;;6.35;3.30;;;21.40;53.80;;;;;;5037004;28;20045;-70
2024/01/06 02:54:33;;;;;;;4.82;2.58;;;21.40;53.80;;;;;;5038554;28;20021;-71
2024/01/06 02:56:59;;;;;;;5.57;3.20;;;21.40;53.80;;;;;;5040494;28;20029;-71
2024/01/06 02:59:24;;;;;;;4.63;2.60;;;21.30;53.80;;;;;;5039568;28;20408;-71
2024/01/06 03:01:50;;;;;;;4.57;2.65;;;21.30;53.90;;;;;;5039151;28;20034;-71
2024/01/06 03:04:15;;;;;;;5.57;3.00;;;21.30;53.90;;;;;;5040325;28;20027;-72
2024/01/06 03:06:42;;;;;;;5.32;2.97;;;21.30;53.90;;;;;;5041886;28;20377;-71
2024/01/06 03:09:08;;;;;;;5.45;3.13;;;21.30;54.00;;;;;;5042484;28;20061;-71
2024/01/06 03:11:33;;;;;;;4.95;2.83;;;21.30;54.00;;;;;;5038190;28;20407;-70
2024/01/06 03:13:59;;;;;;;5.10;2.75;;;21.30;54.00;;;;;;5039405;28;20040;-71
2024/01/06 03:16:24;;;;;;;5.03;2.67;;;21.20;54.00;;;;;;5038933;28;20033;-71
2024/01/06 03:18:50;;;;;;;6.22;2.83;;;21.30;54.10;;;;;;5039829;28;20040;-71
2024/01/06 03:21:22;;;;;;;5.05;2.80;;;21.20;54.00;;;;;;5041200;28;20021;-71
2024/01/06 03:23:50;;;;;;;5.68;2.65;;;21.20;54.10;;;;;;5040837;28;20053;-71
2024/01/06 03:26:17;;;;;;;5.18;2.70;;;21.20;54.10;;;;;;5036241;28;20150;-72
2024/01/06 03:28:43;;;;;;;4.40;2.50;;;21.20;54.60;;;;;;5038955;28;20033;-71
2024/01/06 03:31:08;;;;;;;5.68;2.85;;;21.20;54.20;;;;;;5038040;28;20052;-70
2024/01/06 03:33:34;;;;;;;4.22;2.38;;;21.10;54.10;;;;;;5038573;28;20068;-71
2024/01/06 03:36:05;;;;;;;5.07;2.40;;;21.10;54.10;;;;;;5036085;28;20116;-72
2024/01/06 03:38:30;;;;;;;5.25;2.80;;;21.10;54.20;;;;;;5037464;28;20379;-63
2024/01/06 03:40:56;;;;;;;4.43;2.55;;;21.10;54.20;;;;;;5034643;28;20182;-63
2024/01/06 03:43:22;;;;;;;3.80;2.45;;;21.10;54.20;;;;;;5038483;28;20476;-63
2024/01/06 03:45:48;;;;;;;4.70;2.42;;;21.10;54.20;;;;;;5040280;28;20025;-65
2024/01/06 03:48:13;;;;;;;4.30;2.50;;;21.10;54.30;;;;;;5039288;28;20033;-63
2024/01/06 03:50:39;;;;;;;4.38;2.50;;;21.10;54.30;;;;;;5038056;28;20040;-65
2024/01/06 03:53:05;;;;;;;4.72;2.72;;;21.00;54.30;;;;;;5040010;28;20040;-66
2024/01/06 03:55:30;;;;;;;5.70;3.13;;;21.00;54.30;;;;;;5037418;28;20051;-63
2024/01/06 03:57:56;;;;;;;4.35;2.38;;;21.00;54.30;;;;;;5038025;28;20036;-71
2024/01/06 04:00:21;;;;;;;4.35;2.45;;;21.00;54.50;;;;;;5038226;28;20041;-71
2024/01/06 04:02:47;;;;;;;4.75;2.40;;;21.00;54.40;;;;;;5037942;28;20018;-71
2024/01/06 04:05:13;;;;;;;3.95;2.10;;;21.00;54.40;;;;;;5039622;28;20081;-71
2024/01/06 04:07:38;;;;;;;3.78;2.20;;;21.00;54.40;;;;;;5039614;28;20030;-71
2024/01/06 04:10:04;;;;;;;4.25;2.25;;;21.00;54.50;;;;;;5033502;28;20040;-71
2024/01/06 04:12:30;;;;;;;4.43;2.13;;;21.00;54.50;;;;;;5038877;28;20497;-71
2024/01/06 04:14:55;;;;;;;3.40;2.03;;;20.90;54.40;;;;;;5038983;28;20041;-71
2024/01/06 04:17:21;;;;;;;4.22;2.42;;;20.90;54.40;;;;;;5038982;28;20036;-70
2024/01/06 04:19:47;;;;;;;4.10;2.25;;;20.90;54.50;;;;;;5039587;28;20338;-70
2024/01/06 04:22:13;;;;;;;4.20;2.22;;;20.90;54.50;;;;;;5041890;28;20041;-71
2024/01/06 04:24:40;;;;;;;4.10;2.20;;;20.90;54.50;;;;;;5037171;28;20569;-72
2024/01/06 04:27:05;;;;;;;3.95;2.20;;;20.90;54.60;;;;;;5037093;28;20033;-71
2024/01/06 04:29:31;;;;;;;3.38;1.98;;;20.90;54.60;;;;;;5038878;28;20029;-71
2024/01/06 04:31:56;;;;;;;3.78;2.20;;;20.90;54.60;;;;;;5034834;28;20060;-71
2024/01/06 04:34:22;;;;;;;4.18;2.30;;;20.90;54.60;;;;;;5038617;28;20033;-71
2024/01/06 04:36:49;;;;;;;3.65;1.85;;;20.80;54.60;;;;;;5038529;28;20060;-70
2024/01/06 04:39:15;;;;;;;3.42;2.10;;;20.80;54.60;;;;;;5038982;28;20021;-71
2024/01/06 04:41:40;;;;;;;3.58;2.38;;;20.80;54.60;;;;;;5034668;28;20040;-70
2024/01/06 04:44:06;;;;;;;3.63;2.08;;;20.80;54.70;;;;;;5038067;28;20112;-71
2024/01/06 04:46:32;;;;;;;3.67;2.00;;;20.80;54.70;;;;;;5039903;28;20524;-71
2024/01/06 04:48:58;;;;;;;3.33;1.65;;;20.80;54.70;;;;;;5037390;28;20036;-66
2024/01/06 04:51:24;;;;;;;3.33;1.80;;;20.80;54.70;;;;;;5037022;28;20033;-65
2024/01/06 04:53:49;;;;;;;3.45;1.80;;;20.70;54.70;;;;;;5038284;28;20169;-67
2024/01/06 04:56:15;;;;;;;4.63;1.95;;;20.70;54.70;;;;;;5035466;28;20037;-65
2024/01/06 04:58:41;;;;;;;2.95;1.83;;;20.70;54.70;;;;;;5040982;28;20103;-65
2024/01/06 05:01:06;;;;;;;2.78;1.70;;;20.70;55.20;;;;;;5037959;28;20029;-66
2024/01/06 05:03:32;;;;;;;3.58;1.85;;;20.80;54.80;;;;;;5039330;28;20032;-65
2024/01/06 05:05:57;;;;;;;3.08;1.67;;;20.70;54.80;;;;;;5033157;28;20044;-65
2024/01/06 05:08:24;;;;;;;3.65;2.00;;;20.70;54.80;;;;;;5038381;28;20025;-71
2024/01/06 05:10:52;;;;;;;3.03;1.70;;;20.70;54.90;;;;;;5033042;28;20536;-71
2024/01/06 05:13:17;;;;;;;3.28;1.50;;;20.70;54.90;;;;;;5036700;28;20477;-71
2024/01/06 05:15:43;;;;;;;3.83;1.80;;;20.70;54.90;;;;;;5038266;28;20033;-71
2024/01/06 05:18:09;;;;;;;3.05;1.58;;;20.70;54.90;;;;;;5036867;28;20436;-71
2024/01/06 05:20:34;;;;;;;2.22;1.50;;;20.70;54.90;;;;;;5039343;28;20026;-71
2024/01/06 05:23:00;;;;;;;2.83;1.60;;;20.70;55.00;;;;;;5038497;28;20400;-71
2024/01/06 05:25:26;;;;;;;3.25;1.63;;;20.60;55.00;;;;;;5033451;28;20029;-70
2024/01/06 05:27:51;;;;;;;3.22;1.73;;;20.60;55.00;;;;;;5037832;28;20033;-71
2024/01/06 05:30:18;;;;;;;2.92;1.70;;;20.60;55.00;;;;;;5038338;28;20033;-70
2024/01/06 05:32:43;;;;;;;3.20;1.77;;;20.60;55.00;;;;;;5035141;28;20108;-72
2024/01/06 05:35:09;;;;;;;3.20;1.50;;;20.60;55.00;;;;;;5039393;28;20545;-71
2024/01/06 05:37:35;;;;;;;2.72;1.60;;;20.60;55.00;;;;;;5037988;28;20029;-71
2024/01/06 05:40:03;;;;;;;2.72;1.60;;;20.60;55.10;;;;;;5034807;28;20017;-65
2024/01/06 05:42:29;;;;;;;3.00;1.55;;;20.60;55.10;;;;;;5032907;28;20433;-65
2024/01/06 05:44:55;;;;;;;2.58;1.50;;;20.60;55.10;;;;;;5035797;28;20037;-64
2024/01/06 05:47:20;;;;;;;2.90;1.70;;;20.60;55.10;;;;;;5035277;28;20022;-64
2024/01/06 05:49:46;;;;;;;3.15;1.77;;;20.60;55.10;;;;;;5040479;28;20043;-65
2024/01/06 05:52:12;;;;;;;3.05;1.60;;;20.60;55.10;;;;;;5037181;28;20501;-65
2024/01/06 05:54:42;;;;;;;2.53;1.50;;;20.50;55.10;;;;;;5036960;28;20025;-64
2024/01/06 05:57:11;;;;;;;2.72;1.40;;;20.50;55.60;;;;;;5034633;28;20032;-64
2024/01/06 05:59:37;;;;;;;2.70;1.48;;;20.50;55.10;;;;;;5036930;28;20021;-64
2024/01/06 06:02:02;;;;;;;2.22;1.38;;;20.50;55.10;;;;;;5034219;28;20025;-64
2024/01/06 06:04:29;;;;;;;2.38;1.40;;;20.50;55.20;;;;;;5036199;28;20489;-65
2024/01/06 06:06:54;;;;;;;2.60;1.40;;;20.50;55.20;;;;;;5035488;28;20103;-64
2024/01/06 06:09:21;;;;;;;2.50;1.52;;;20.50;55.20;;;;;;5041110;28;20456;-64
2024/01/06 06:11:47;;;;;;;2.65;1.60;;;20.50;55.20;;;;;;5038345;28;20036;-67
2024/01/06 06:14:13;;;;;;;2.15;1.35;;;20.50;55.20;;;;;;5040828;28;20096;-65
2024/01/06 06:16:39;;;;;;;2.67;1.50;;;20.50;55.20;;;;;;5039318;28;20036;-65
2024/01/06 06:19:04;;;;;;;2.88;1.73;;;20.50;55.20;;;;;;5041120;28;20061;-66
2024/01/06 06:21:30;;;;;;;2.35;1.45;;;20.50;55.20;;;;;;5040927;28;20025;-65
2024/01/06 06:23:55;;;;;;;2.67;1.60;;;20.50;55.20;;;;;;5040020;28;20073;-66
2024/01/06 06:26:21;;;;;;;2.28;1.40;;;20.50;55.30;;;;;;5038684;28;20464;-67
2024/01/06 06:28:47;;;;;;;2.20;1.50;;;20.40;55.20;;;;;;5039578;28;20138;-66
2024/01/06 06:31:12;;;;;;;2.35;1.40;;;20.40;55.20;;;;;;5040472;28;20112;-65
2024/01/06 06:33:39;;;;;;;2.75;1.50;;;20.40;55.20;;;;;;5041732;28;20485;-66
2024/01/06 06:36:05;;;;;;;2.20;1.30;;;20.40;55.20;;;;;;5039548;28;20370;-65
2024/01/06 06:38:30;;;;;;;2.47;1.38;;;20.40;55.20;;;;;;5037945;28;20390;-65
2024/01/06 06:40:56;;;;;;;2.13;1.30;;;20.40;55.20;;;;;;5037228;28;20029;-67
2024/01/06 06:43:22;;;;;;;2.53;1.35;;;20.40;55.20;;;;;;5036057;28;20026;-66
2024/01/06 06:45:47;;;;;;;3.53;1.40;;;20.40;55.20;;;;;;5038149;28;20026;-65
2024/01/06 06:48:13;;;;;;;2.20;1.27;;;20.40;55.20;;;;;;5042114;28;20029;-65
2024/01/06 06:50:40;;;;;;;2.22;1.30;;;20.40;55.30;;;;;;5040090;28;20076;-69
2024/01/06 06:53:06;;;;;;;2.50;1.38;;;20.40;55.30;;;;;;5041370;28;20029;-71
2024/01/06 06:55:32;;;;;;;2.50;1.50;;;20.40;55.30;;;;;;5042223;28;20025;-71
2024/01/06 06:57:57;;;;;;;2.60;1.40;;;20.40;55.20;;;;;;5037067;28;20029;-71
2024/01/06 07:00:23;;;;;;;2.42;1.40;;;20.40;55.30;;;;;;5038057;28;20022;-72
2024/01/06 07:02:49;;;;;;;2.25;1.35;;;20.40;55.30;;;;;;5039866;28;20095;-71
2024/01/06 07:05:14;;;;;;;2.33;1.30;;;20.40;55.30;;;;;;5041288;28;20051;-71
2024/01/06 07:07:40;;;;;;;2.20;1.23;;;20.40;55.30;;;;;;5041338;28;20021;-71
2024/01/06 07:10:06;;;;;;;2.03;1.20;;;20.30;55.40;;;;;;5040489;28;20390;-65
2024/01/06 07:12:32;;;;;;;2.53;1.33;;;20.30;55.30;;;;;;5038703;28;20033;-65
2024/01/06 07:14:58;;;;;;;2.50;1.38;;;20.30;55.30;;;;;;5038770;28;20393;-67
2024/01/06 07:17:24;;;;;;;2.53;1.20;;;20.30;55.30;;;;;;5040447;28;20021;-65
2024/01/06 07:19:50;;;;;;;1.88;1.15;;;20.30;55.30;;;;;;5038576;28;20033;-66
2024/01/06 07:22:16;;;;;;;2.38;1.30;;;20.30;55.30;;;;;;5041008;28;20029;-65
2024/01/06 07:24:42;;;;;;;2.50;1.40;;;20.30;55.30;;;;;;5040042;28;20496;-65
2024/01/06 07:27:07;;;;;;;2.28;1.30;;;20.30;55.30;;;;;;5038714;28;20030;-66
2024/01/06 07:29:33;;;;;;;2.58;1.42;;;20.30;55.30;;;;;;5039441;28;20544;-70
2024/01/06 07:31:59;;;;;;;2.45;1.30;;;20.30;55.30;;;;;;5037999;28;20026;-70
2024/01/06 07:34:25;;;;;;;2.38;1.50;;;20.30;55.40;;;;;;5038955;28;20095;-69
2024/01/06 07:36:51;;;;;;;2.33;1.20;;;20.30;55.40;;;;;;5039107;28;20507;-69
2024/01/06 07:39:16;;;;;;;2.60;1.42;;;20.30;55.40;;;;;;5037242;28;20030;-70
2024/01/06 07:41:42;;;;;;;2.40;1.35;;;20.30;55.40;;;;;;5038347;28;20040;-70
2024/01/06 07:44:08;;;;;;;1.70;1.20;;;20.30;55.40;;;;;;5040301;28;20021;-69
2024/01/06 07:46:35;;;;;;;2.45;1.27;;;20.30;55.40;;;;;;5042698;28;20025;-70
2024/01/06 07:49:00;;;;;;;2.13;1.10;;;20.30;55.40;;;;;;5037313;28;20481;-70
2024/01/06 07:51:26;;;;;;;2.28;1.25;;;20.20;55.30;;;;;;5039949;28;20086;-70
2024/01/06 07:53:52;;;;;;;1.98;1.30;;;20.20;55.30;;;;;;5037227;28;20064;-71
2024/01/06 07:56:18;;;;;;;2.25;1.23;;;20.30;55.40;;;;;;5039464;28;20136;-70
2024/01/06 07:58:44;;;;;;;1.90;1.10;;;20.20;55.40;;;;;;5037173;28;20033;-70
2024/01/06 08:01:09;;;;;;;2.03;1.30;;;20.20;55.40;;;;;;5038314;28;20052;-66
2024/01/06 08:03:35;;;;;;;2.08;1.20;;;20.30;55.40;;;;;;5038563;28;20508;-65
2024/01/06 08:06:01;;;;;;;2.10;1.20;;;20.20;55.40;;;;;;5039021;28;20027;-64
2024/01/06 08:08:26;;;;;;;2.00;1.00;;;20.20;55.40;;;;;;5039675;28;20508;-63
2024/01/06 08:10:52;;;;;;;2.10;1.40;;;20.20;55.40;;;;;;5037875;28;20033;-65
2024/01/06 08:13:18;;;;;;;2.00;1.20;;;20.20;55.40;;;;;;5035036;28;20029;-64
2024/01/06 08:15:43;;;;;;;1.90;1.20;;;20.20;55.40;;;;;;5037769;28;20473;-63
2024/01/06 08:18:09;;;;;;;2.03;1.20;;;20.20;55.40;;;;;;5036803;28;20098;-63
2024/01/06 08:20:35;;;;;;;2.42;1.30;;;20.20;55.50;;;;;;5037245;28;20101;-64
2024/01/06 08:23:00;;;;;;;2.05;1.20;;;20.20;55.50;;;;;;5040273;28;20025;-66
2024/01/06 08:25:26;;;;;;;1.98;1.30;;;20.20;55.50;;;;;;5034408;28;20478;-65
2024/01/06 08:27:51;;;;;;;1.83;1.27;;;20.20;55.50;;;;;;5032935;28;20397;-64
2024/01/06 08:30:17;;;;;;;2.20;1.20;;;20.20;55.50;;;;;;5036842;28;20029;-65
2024/01/06 08:32:42;;;;;;;2.30;1.40;;;20.20;55.50;;;;;;5038686;28;20052;-66
2024/01/06 08:35:09;;;;;;;2.28;1.40;;;20.20;55.50;;;;;;5037396;28;20488;-65
2024/01/06 08:37:35;;;;;;;2.42;1.30;;;20.20;55.60;;;;;;5038734;28;20334;-65
2024/01/06 08:40:00;;;;;;;2.05;1.20;;;20.20;55.50;;;;;;5036654;28;20041;-65
2024/01/06 08:42:26;;;;;;;1.83;1.10;;;20.20;55.50;;;;;;5036607;28;20891;-65
2024/01/06 08:44:52;;;;;;;2.25;1.30;;;20.20;55.50;;;;;;5037977;28;20021;-65
2024/01/06 08:47:17;;;;;;;1.98;1.30;;;20.20;55.50;;;;;;5039357;28;20174;-65
2024/01/06 08:49:43;;;;;;;2.50;1.27;;;20.20;55.50;;;;;;5035360;28;20030;-65
2024/01/06 08:52:08;;;;;;;2.17;1.20;;;20.20;55.50;;;;;;5036066;28;20037;-65
2024/01/06 08:54:35;;;;;;;1.50;1.00;;;20.10;55.50;;;;;;5037089;28;20132;-65
2024/01/06 08:57:00;;;;;;;2.50;1.15;;;20.10;55.50;;;;;;5037577;28;20025;-66
2024/01/06 08:59:26;;;;;;;1.65;1.15;;;20.10;55.50;;;;;;5037387;28;20504;-65
2024/01/06 09:01:52;;;;;;;2.33;1.30;;;20.10;55.50;;;;;;5050479;28;20037;-65
2024/01/06 09:04:18;;;;;;;2.35;1.20;;;20.10;55.50;;;;;;5038527;28;20526;-65
2024/01/06 09:06:46;;;;;;;2.05;1.20;;;20.10;55.50;;;;;;5037852;28;20147;-65
2024/01/06 09:09:12;;;;;;;1.85;1.20;;;20.10;55.50;;;;;;5037077;28;20560;-68
2024/01/06 09:11:38;;;;;;;1.90;1.23;;;20.10;55.50;;;;;;5037968;28;20112;-70
2024/01/06 09:14:03;;;;;;;2.70;1.27;;;20.10;55.50;;;;;;5034353;28;20029;-70
2024/01/06 09:16:29;;;;;;;1.70;1.10;;;20.20;55.60;;;;;;5036648;28;20485;-69
2024/01/06 09:18:55;;;;;;;2.67;1.20;;;20.10;55.50;;;;;;5037321;28;20040;-69
2024/01/06 09:21:20;;;;;;;2.13;1.20;;;20.10;55.50;;;;;;5036758;28;20041;-70
2024/01/06 09:23:46;;;;;;;1.70;1.10;;;20.10;55.50;;;;;;5035757;28;20110;-69
2024/01/06 09:26:12;;;;;;;1.95;1.10;;;20.10;55.50;;;;;;5039486;28;20025;-70
2024/01/06 09:28:37;;;;;;;2.05;1.25;;;20.10;55.60;;;;;;5037040;28;20629;-70
2024/01/06 09:31:04;;;;;;;2.05;1.20;;;20.10;55.60;;;;;;5034888;28;20120;-63
2024/01/06 09:33:30;;;;;;;2.42;1.20;;;20.10;55.50;;;;;;5039870;28;20108;-64
2024/01/06 09:35:55;;;;;;;1.90;1.20;;;20.10;55.60;;;;;;5037381;28;20456;-64
2024/01/06 09:38:21;;;;;;;2.22;1.35;;;20.10;55.60;;;;;;5038635;28;20036;-65
2024/01/06 09:40:48;;;;;;;1.92;1.20;;;20.10;55.50;;;;;;5037239;28;20148;-64
2024/01/06 09:43:15;;;;;;;1.85;1.05;;;20.10;55.50;;;;;;5035940;28;20509;-63
2024/01/06 09:45:41;;;;;;;1.63;1.10;;;20.10;55.50;;;;;;5042479;28;20023;-63
2024/01/06 09:48:15;;;;;;;1.83;1.10;;;20.10;55.50;;;;;;5038667;28;20046;-64
2024/01/06 09:50:41;;;;;;;1.48;1.02;;;20.10;55.50;;;;;;5042984;28;20358;-64
2024/01/06 09:53:10;;;;;;;2.30;1.20;;;20.10;55.60;;;;;;5039722;28;20045;-64
2024/01/06 09:55:38;;;;;;;2.78;1.20;;;20.10;55.60;;;;;;5038550;28;20026;-65
2024/01/06 09:58:04;;;;;;;2.28;1.10;;;20.10;55.50;;;;;;5037725;28;20492;-65
2024/01/06 10:00:30;;;;;;;1.75;1.10;;;20.10;55.50;;;;;;5040902;28;20037;-65
2024/01/06 10:02:56;;;;;;;1.80;1.10;;;20.10;55.60;;;;;;5039925;28;20022;-65
2024/01/06 10:05:21;;;;;;;1.92;1.15;;;20.10;55.60;;;;;;5038971;28;20021;-65
2024/01/06 10:07:47;;;;;;;1.15;0.90;;;20.10;55.60;;;;;;5040419;28;20032;-65
2024/01/06 10:10:14;;;;;;;1.80;1.10;;;20.10;55.50;;;;;;5040654;28;20084;-65
2024/01/06 10:12:46;;;;;;;1.90;1.10;;;20.10;55.50;;;;;;5038167;28;20047;-66
2024/01/06 10:15:12;;;;;;;2.00;1.33;;;20.10;55.60;;;;;;5041220;28;20588;-65
2024/01/06 10:17:39;;;;;;;2.08;1.17;;;20.00;55.50;;;;;;5041266;28;20055;-65
2024/01/06 10:20:12;;;;;;;2.40;1.40;;;20.00;55.50;;;;;;5041388;28;20036;-66
2024/01/06 10:22:41;;;;;;;1.60;1.08;;;20.10;55.60;;;;;;5040666;28;20491;-64
2024/01/06 10:25:08;;;;;;;1.73;1.20;;;20.00;55.60;;;;;;5039993;28;20516;-65
2024/01/06 10:27:37;;;;;;;2.05;1.20;;;20.00;55.60;;;;;;5039378;28;20393;-67
2024/01/06 10:30:03;;;;;;;1.77;1.20;;;20.00;55.60;;;;;;5041800;28;20029;-65
2024/01/06 10:32:34;;;;;;;1.83;1.10;;;20.00;55.60;;;;;;5041917;28;20512;-65
2024/01/06 10:35:01;;;;;;;1.60;1.08;;;20.00;55.60;;;;;;5040201;28;20038;-67
2024/01/06 10:37:27;;;;;;;1.70;1.00;;;20.00;55.60;;;;;;5040068;28;20049;-66
2024/01/06 10:40:15;;;;;;;1.88;1.13;;;20.00;55.60;;;;;;5041017;28;20033;-70
2024/01/06 10:42:45;;;;;;;1.90;1.10;;;20.00;55.60;;;;;;5039086;28;20045;-69
2024/01/06 10:45:13;;;;;;;1.92;1.23;;;20.00;55.50;;;;;;5041909;28;20047;-71
2024/01/06 10:47:42;;;;;;;1.75;1.13;;;20.00;55.50;;;;;;5038742;28;20026;-70
2024/01/06 10:50:08;;;;;;;1.67;1.10;;;20.10;55.60;;;;;;5040084;28;20036;-70
2024/01/06 10:52:35;;;;;;;2.00;1.30;;;20.10;55.50;;;;;;5038351;28;20029;-70
2024/01/06 10:55:02;;;;;;;2.03;1.15;;;20.00;55.50;;;;;;5039994;28;20048;-70
2024/01/06 10:57:31;;;;;;;1.92;1.10;;;20.00;55.50;;;;;;5040486;28;20017;-70
2024/01/06 10:59:58;;;;;;;2.03;1.20;;;20.00;55.50;;;;;;5040315;28;20077;-69
2024/01/06 11:02:25;;;;;;;1.80;1.10;;;20.00;55.60;;;;;;5038385;28;20036;-70
2024/01/06 11:04:51;;;;;;;1.40;1.08;;;20.00;55.60;;;;;;5039313;28;20021;-70
2024/01/06 11:07:19;;;;;;;1.42;0.90;;;20.00;55.60;;;;;;5041560;28;20022;-70
2024/01/06 11:10:07;;;;;;;1.63;0.90;;;20.00;55.60;;;;;;5041183;28;20342;-70
2024/01/06 11:12:33;;;;;;;2.13;1.00;;;20.00;55.50;;;;;;5039545;28;20397;-69
2024/01/06 11:14:58;;;;;;;1.80;1.00;;;20.00;55.60;;;;;;5036422;28;20098;-70
2024/01/06 11:17:53;;;;;;;1.83;1.17;;;20.00;55.60;;;;;;5040217;28;20566;-68
2024/01/06 11:20:23;;;;;;;1.85;1.13;;;20.00;55.60;;;;;;5042260;28;20029;-70
2024/01/06 11:22:50;;;;;;;2.28;1.20;;;20.00;55.60;;;;;;5040293;28;20064;-71
2024/01/06 11:25:22;;;;;;;1.40;1.00;;;20.00;55.60;;;;;;5040580;28;20051;-69
2024/01/06 11:27:49;;;;;;;1.35;1.00;;;20.00;55.60;;;;;;5035179;28;20473;-69
2024/01/06 11:30:29;;;;;;;1.63;1.00;;;20.00;56.10;;;;;;5037422;28;20107;-64
2024/01/06 11:32:58;;;;;;;1.50;1.10;;;20.00;55.70;;;;;;5037621;28;20063;-64
2024/01/06 11:35:26;;;;;;;;;;;20.00;55.60;;;;;;5039276;28;20022;-63
2024/01/06 11:37:55;;;;;;;1.58;1.00;;;20.00;55.70;;;;;;5041659;28;19915;-63
2024/01/06 11:40:20;;;;;;;1.65;1.15;;;20.00;55.70;;;;;;5036205;28;20028;-63
2024/01/06 11:42:47;;;;;;;1.52;1.08;;;20.00;55.60;;;;;;5038228;28;20026;-64
2024/01/06 11:45:14;;;;;;;1.58;1.10;;;20.00;55.60;;;;;;5035836;28;20028;-65
2024/01/06 11:47:41;;;;;;;1.48;1.00;;;20.00;55.60;;;;;;5038573;28;20025;-64
2024/01/06 11:50:07;;;;;;;1.50;0.93;;;20.00;55.70;;;;;;5039375;28;20064;-66
2024/01/06 11:52:33;;;;;;;2.05;1.20;;;20.00;55.70;;;;;;5040332;28;20128;-64
2024/01/06 11:54:59;;;;;;;1.70;1.00;;;20.00;55.60;;;;;;5035892;28;20099;-63
2024/01/06 11:57:28;;;;;;;1.55;0.93;;;20.00;55.80;;;;;;5037057;28;20065;-64
2024/01/06 11:59:54;;;;;;;1.55;1.02;;;20.00;55.60;;;;;;5036514;28;20393;-63
2024/01/06 12:02:25;;;;;;;1.15;0.90;;;20.00;55.70;;;;;;5039898;28;20083;-63
2024/01/06 12:04:52;;;;;;;1.77;1.15;;;20.00;55.70;;;;;;5038702;28;20100;-65
2024/01/06 12:07:19;;;;;;;1.42;0.90;;;20.00;55.70;;;;;;5036738;28;20650;-63
2024/01/06 12:09:47;;;;;;;1.58;1.05;;;20.00;55.70;;;;;;5039046;28;20527;-65
2024/01/06 12:12:16;;;;;;;1.50;1.00;;;20.00;55.70;;;;;;5039285;28;20104;-63
2024/01/06 12:14:42;;;;;;;1.40;0.90;;;20.00;55.70;;;;;;5038358;28;20465;-64
2024/01/06 12:17:08;;;;;;;2.03;1.08;;;20.00;55.70;;;;;;5038626;28;20128;-64
2024/01/06 12:19:33;;;;;;;1.63;1.00;;;20.00;55.70;;;;;;5038800;28;20132;-63
2024/01/06 12:21:59;;;;;;;1.58;0.98;;;20.00;55.60;;;;;;5039817;28;20026;-64
2024/01/06 12:24:28;;;;;;;1.42;0.95;;;20.00;55.70;;;;;;5039047;28;20032;-63
2024/01/06 12:26:56;;;;;;;1.15;0.90;;;20.00;55.70;;;;;;5040006;28;20427;-64
2024/01/06 12:29:22;;;;;;;2.17;1.20;;;20.00;55.60;;;;;;5037374;28;20033;-64
2024/01/06 12:31:47;;;;;;;1.60;1.10;;;20.00;55.70;;;;;;5037933;28;20036;-65
2024/01/06 12:34:13;;;;;;;1.80;1.10;;;20.00;55.60;;;;;;5038870;28;20056;-63
2024/01/06 12:36:42;;;;;;;1.90;1.20;;;20.00;55.70;;;;;;5038234;28;20142;-65
2024/01/06 12:39:16;;;;;;;1.50;1.00;;;20.00;55.60;;;;;;5038411;28;20029;-70
2024/01/06 12:41:42;;;;;;;2.08;1.20;;;20.00;55.70;;;;;;5034976;28;20032;-70